sensor_id;sensor_type;location;lat;lon;timestamp;temperature;humidity
14473;DHT22;7322;50.872;4.386;2023-06-26T00:02:20;28.50;99.90
14473;DHT22;7322;50.872;4.386;2023-06-26T00:04:47;28.50;99.90
14473;DHT22;7322;50.872;4.386;2023-06-26T00:07:14;28.40;99.90
14473;DHT22;7322;50.872;4.386;2023-06-26T00:09:41;28.50;99.90
14473;DHT22;7322;50.872;4.386;2023-06-26T00:12:08;28.50;99.90
14473;DHT22;7322;50.872;4.386;2023-06-26T00:14:36;28.40;99.90
14473;DHT22;7322;50.872;4.386;2023-06-26T00:17:03;28.40;99.90
14473;DHT22;7322;50.872;4.386;2023-06-26T00:19:31;28.50;99.90
14473;DHT22;7322;50.872;4.386;2023-06-26T00:21:59;28.40;99.90
14473;DHT22;7322;50.872;4.386;2023-06-26T00:24:26;28.40;99.90
14473;DHT22;7322;50.872;4.386;2023-06-26T00:26:53;28.30;99.90
14473;DHT22;7322;50.872;4.386;2023-06-26T00:29:20;28.30;99.90
14473;DHT22;7322;50.872;4.386;2023-06-26T00:31:47;28.20;99.90
14473;DHT22;7322;50.872;4.386;2023-06-26T00:34:15;28.20;99.90
14473;DHT22;7322;50.872;4.386;2023-06-26T00:36:43;28.20;99.90
14473;DHT22;7322;50.872;4.386;2023-06-26T00:39:11;28.10;99.90
14473;DHT22;7322;50.872;4.386;2023-06-26T00:41:38;28.20;99.90
14473;DHT22;7322;50.872;4.386;2023-06-26T00:44:05;28.10;99.90
14473;DHT22;7322;50.872;4.386;2023-06-26T00:46:32;28.20;99.90
14473;DHT22;7322;50.872;4.386;2023-06-26T00:49:02;28.20;99.90
14473;DHT22;7322;50.872;4.386;2023-06-26T00:51:30;28.20;99.90
14473;DHT22;7322;50.872;4.386;2023-06-26T00:53:59;28.10;99.90
14473;DHT22;7322;50.872;4.386;2023-06-26T00:56:28;28.10;99.90
14473;DHT22;7322;50.872;4.386;2023-06-26T00:58:55;28.00;99.90
14473;DHT22;7322;50.872;4.386;2023-06-26T01:01:22;28.00;99.90
14473;DHT22;7322;50.872;4.386;2023-06-26T01:03:52;28.00;99.90
14473;DHT22;7322;50.872;4.386;2023-06-26T01:06:21;28.00;99.90
14473;DHT22;7322;50.872;4.386;2023-06-26T01:08:49;27.90;99.90
14473;DHT22;7322;50.872;4.386;2023-06-26T01:11:18;27.90;99.90
14473;DHT22;7322;50.872;4.386;2023-06-26T01:13:45;27.90;99.90
14473;DHT22;7322;50.872;4.386;2023-06-26T01:16:13;27.90;99.90
14473;DHT22;7322;50.872;4.386;2023-06-26T01:18:45;27.90;99.90
14473;DHT22;7322;50.872;4.386;2023-06-26T01:21:14;27.90;99.90
14473;DHT22;7322;50.872;4.386;2023-06-26T01:23:49;27.90;99.90
14473;DHT22;7322;50.872;4.386;2023-06-26T01:26:23;27.90;99.90
14473;DHT22;7322;50.872;4.386;2023-06-26T01:28:53;27.80;99.90
14473;DHT22;7322;50.872;4.386;2023-06-26T01:31:23;27.80;99.90
14473;DHT22;7322;50.872;4.386;2023-06-26T01:33:51;27.70;99.90
14473;DHT22;7322;50.872;4.386;2023-06-26T01:36:18;27.70;99.90
14473;DHT22;7322;50.872;4.386;2023-06-26T01:38:45;27.70;99.90
14473;DHT22;7322;50.872;4.386;2023-06-26T01:41:12;27.60;99.90
14473;DHT22;7322;50.872;4.386;2023-06-26T01:43:51;27.60;99.90
14473;DHT22;7322;50.872;4.386;2023-06-26T01:46:27;27.60;99.90
14473;DHT22;7322;50.872;4.386;2023-06-26T01:49:02;27.60;99.90
14473;DHT22;7322;50.872;4.386;2023-06-26T01:51:32;27.50;99.90
14473;DHT22;7322;50.872;4.386;2023-06-26T01:54:00;27.50;99.90
14473;DHT22;7322;50.872;4.386;2023-06-26T01:56:28;27.50;99.90
14473;DHT22;7322;50.872;4.386;2023-06-26T01:58:58;27.50;99.90
14473;DHT22;7322;50.872;4.386;2023-06-26T02:01:26;27.50;99.90
14473;DHT22;7322;50.872;4.386;2023-06-26T02:03:53;27.50;99.90
14473;DHT22;7322;50.872;4.386;2023-06-26T02:06:20;27.40;99.90
14473;DHT22;7322;50.872;4.386;2023-06-26T02:08:47;27.40;99.90
14473;DHT22;7322;50.872;4.386;2023-06-26T02:11:14;27.50;99.90
14473;DHT22;7322;50.872;4.386;2023-06-26T02:13:41;27.50;99.90
14473;DHT22;7322;50.872;4.386;2023-06-26T02:16:10;27.40;99.90
14473;DHT22;7322;50.872;4.386;2023-06-26T02:18:37;27.40;99.90
14473;DHT22;7322;50.872;4.386;2023-06-26T02:21:04;27.30;99.90
14473;DHT22;7322;50.872;4.386;2023-06-26T02:23:31;27.30;99.90
14473;DHT22;7322;50.872;4.386;2023-06-26T02:25:58;27.30;99.90
14473;DHT22;7322;50.872;4.386;2023-06-26T02:28:25;27.30;99.90
14473;DHT22;7322;50.872;4.386;2023-06-26T02:30:52;27.30;99.90
14473;DHT22;7322;50.872;4.386;2023-06-26T02:33:20;27.30;99.90
14473;DHT22;7322;50.872;4.386;2023-06-26T02:35:47;27.30;99.90
14473;DHT22;7322;50.872;4.386;2023-06-26T02:38:15;27.30;99.90
14473;DHT22;7322;50.872;4.386;2023-06-26T02:40:42;27.30;99.90
14473;DHT22;7322;50.872;4.386;2023-06-26T02:43:09;27.30;99.90
14473;DHT22;7322;50.872;4.386;2023-06-26T02:45:36;27.20;99.90
14473;DHT22;7322;50.872;4.386;2023-06-26T02:48:04;27.20;99.90
14473;DHT22;7322;50.872;4.386;2023-06-26T02:50:32;27.20;99.90
14473;DHT22;7322;50.872;4.386;2023-06-26T02:52:59;27.20;99.90
14473;DHT22;7322;50.872;4.386;2023-06-26T02:55:26;27.20;99.90
14473;DHT22;7322;50.872;4.386;2023-06-26T02:57:53;27.10;99.90
14473;DHT22;7322;50.872;4.386;2023-06-26T03:00:20;27.00;99.90
14473;DHT22;7322;50.872;4.386;2023-06-26T03:02:47;27.00;99.90
14473;DHT22;7322;50.872;4.386;2023-06-26T03:05:14;27.00;99.90
14473;DHT22;7322;50.872;4.386;2023-06-26T03:07:43;27.00;99.90
14473;DHT22;7322;50.872;4.386;2023-06-26T03:10:10;27.00;99.90
14473;DHT22;7322;50.872;4.386;2023-06-26T03:12:37;27.00;99.90
14473;DHT22;7322;50.872;4.386;2023-06-26T03:15:04;27.00;99.90
14473;DHT22;7322;50.872;4.386;2023-06-26T03:17:31;27.00;99.90
14473;DHT22;7322;50.872;4.386;2023-06-26T03:19:58;27.00;99.90
14473;DHT22;7322;50.872;4.386;2023-06-26T03:22:25;26.90;99.90
14473;DHT22;7322;50.872;4.386;2023-06-26T03:24:54;26.90;99.90
14473;DHT22;7322;50.872;4.386;2023-06-26T03:27:21;26.90;99.90
14473;DHT22;7322;50.872;4.386;2023-06-26T03:29:48;26.80;99.90
14473;DHT22;7322;50.872;4.386;2023-06-26T03:32:15;26.90;99.90
14473;DHT22;7322;50.872;4.386;2023-06-26T03:34:42;26.90;99.90
14473;DHT22;7322;50.872;4.386;2023-06-26T03:37:09;26.80;99.90
14473;DHT22;7322;50.872;4.386;2023-06-26T03:39:36;26.90;99.90
14473;DHT22;7322;50.872;4.386;2023-06-26T03:42:05;26.80;99.90
14473;DHT22;7322;50.872;4.386;2023-06-26T03:44:32;26.70;99.90
14473;DHT22;7322;50.872;4.386;2023-06-26T03:46:59;26.70;99.90
14473;DHT22;7322;50.872;4.386;2023-06-26T03:49:26;26.70;99.90
14473;DHT22;7322;50.872;4.386;2023-06-26T03:51:53;26.60;99.90
14473;DHT22;7322;50.872;4.386;2023-06-26T03:54:20;26.60;99.90
14473;DHT22;7322;50.872;4.386;2023-06-26T03:56:47;26.60;99.90
14473;DHT22;7322;50.872;4.386;2023-06-26T03:59:17;26.60;99.90
14473;DHT22;7322;50.872;4.386;2023-06-26T04:01:44;26.60;99.90
14473;DHT22;7322;50.872;4.386;2023-06-26T04:04:11;26.60;99.90
14473;DHT22;7322;50.872;4.386;2023-06-26T04:06:38;26.50;99.90
14473;DHT22;7322;50.872;4.386;2023-06-26T04:09:06;26.60;99.90
14473;DHT22;7322;50.872;4.386;2023-06-26T04:11:34;26.60;99.90
14473;DHT22;7322;50.872;4.386;2023-06-26T04:14:01;26.60;99.90
14473;DHT22;7322;50.872;4.386;2023-06-26T04:16:29;26.50;99.90
14473;DHT22;7322;50.872;4.386;2023-06-26T04:18:56;26.50;99.90
14473;DHT22;7322;50.872;4.386;2023-06-26T04:21:24;26.50;99.90
14473;DHT22;7322;50.872;4.386;2023-06-26T04:23:52;26.50;99.90
14473;DHT22;7322;50.872;4.386;2023-06-26T04:26:19;26.50;99.90
14473;DHT22;7322;50.872;4.386;2023-06-26T04:28:46;26.50;99.90
14473;DHT22;7322;50.872;4.386;2023-06-26T04:31:14;26.50;99.90
14473;DHT22;7322;50.872;4.386;2023-06-26T04:33:43;26.50;99.90
14473;DHT22;7322;50.872;4.386;2023-06-26T04:36:11;26.40;99.90
14473;DHT22;7322;50.872;4.386;2023-06-26T04:38:41;26.40;99.90
14473;DHT22;7322;50.872;4.386;2023-06-26T04:41:14;26.50;99.90
14473;DHT22;7322;50.872;4.386;2023-06-26T04:43:55;26.50;99.90
14473;DHT22;7322;50.872;4.386;2023-06-26T04:46:27;26.50;99.90
14473;DHT22;7322;50.872;4.386;2023-06-26T04:48:57;26.50;99.90
14473;DHT22;7322;50.872;4.386;2023-06-26T04:51:26;26.60;99.90
14473;DHT22;7322;50.872;4.386;2023-06-26T04:53:54;26.50;99.90
14473;DHT22;7322;50.872;4.386;2023-06-26T04:56:21;26.60;99.90
14473;DHT22;7322;50.872;4.386;2023-06-26T04:58:49;26.60;99.90
14473;DHT22;7322;50.872;4.386;2023-06-26T05:01:18;26.50;99.90
14473;DHT22;7322;50.872;4.386;2023-06-26T05:03:46;26.50;99.90
14473;DHT22;7322;50.872;4.386;2023-06-26T05:06:15;26.50;99.90
14473;DHT22;7322;50.872;4.386;2023-06-26T05:08:42;26.40;99.90
14473;DHT22;7322;50.872;4.386;2023-06-26T05:11:10;26.30;99.90
14473;DHT22;7322;50.872;4.386;2023-06-26T05:13:37;26.30;99.90
14473;DHT22;7322;50.872;4.386;2023-06-26T05:16:08;26.40;99.90
14473;DHT22;7322;50.872;4.386;2023-06-26T05:18:36;26.60;99.90
14473;DHT22;7322;50.872;4.386;2023-06-26T05:21:03;26.70;99.90
14473;DHT22;7322;50.872;4.386;2023-06-26T05:23:33;26.80;99.90
14473;DHT22;7322;50.872;4.386;2023-06-26T05:26:00;27.00;99.90
14473;DHT22;7322;50.872;4.386;2023-06-26T05:28:29;27.10;99.90
14473;DHT22;7322;50.872;4.386;2023-06-26T05:30:57;27.00;99.90
14473;DHT22;7322;50.872;4.386;2023-06-26T05:33:26;26.90;99.90
14473;DHT22;7322;50.872;4.386;2023-06-26T05:35:54;26.80;99.90
14473;DHT22;7322;50.872;4.386;2023-06-26T05:38:22;26.60;99.90
14473;DHT22;7322;50.872;4.386;2023-06-26T05:40:59;26.60;99.90
14473;DHT22;7322;50.872;4.386;2023-06-26T05:43:27;26.50;99.90
14473;DHT22;7322;50.872;4.386;2023-06-26T05:45:56;26.50;99.90
14473;DHT22;7322;50.872;4.386;2023-06-26T05:48:24;26.50;99.90
14473;DHT22;7322;50.872;4.386;2023-06-26T05:50:51;26.40;99.90
14473;DHT22;7322;50.872;4.386;2023-06-26T05:53:19;26.50;99.90
14473;DHT22;7322;50.872;4.386;2023-06-26T05:55:47;26.50;99.90
14473;DHT22;7322;50.872;4.386;2023-06-26T05:58:16;26.50;99.90
14473;DHT22;7322;50.872;4.386;2023-06-26T06:00:44;26.50;99.90
14473;DHT22;7322;50.872;4.386;2023-06-26T06:03:12;26.50;99.90
14473;DHT22;7322;50.872;4.386;2023-06-26T06:05:39;26.50;99.90
14473;DHT22;7322;50.872;4.386;2023-06-26T06:08:07;26.50;99.90
14473;DHT22;7322;50.872;4.386;2023-06-26T06:10:34;26.50;99.90
14473;DHT22;7322;50.872;4.386;2023-06-26T06:13:07;26.50;99.90
14473;DHT22;7322;50.872;4.386;2023-06-26T06:15:35;26.50;99.90
14473;DHT22;7322;50.872;4.386;2023-06-26T06:18:03;26.40;99.90
14473;DHT22;7322;50.872;4.386;2023-06-26T06:20:31;26.50;99.90
14473;DHT22;7322;50.872;4.386;2023-06-26T06:22:59;26.50;99.90
14473;DHT22;7322;50.872;4.386;2023-06-26T06:25:27;26.40;99.90
14473;DHT22;7322;50.872;4.386;2023-06-26T06:27:54;26.40;99.90
14473;DHT22;7322;50.872;4.386;2023-06-26T06:30:21;26.40;99.90
14473;DHT22;7322;50.872;4.386;2023-06-26T06:32:49;26.40;99.90
14473;DHT22;7322;50.872;4.386;2023-06-26T06:35:19;26.40;99.90
14473;DHT22;7322;50.872;4.386;2023-06-26T06:37:46;26.50;99.90
14473;DHT22;7322;50.872;4.386;2023-06-26T06:40:13;26.50;99.90
14473;DHT22;7322;50.872;4.386;2023-06-26T06:42:40;26.50;99.90
14473;DHT22;7322;50.872;4.386;2023-06-26T06:45:08;26.50;99.90
14473;DHT22;7322;50.872;4.386;2023-06-26T06:47:35;26.50;99.90
14473;DHT22;7322;50.872;4.386;2023-06-26T06:50:03;26.40;99.90
14473;DHT22;7322;50.872;4.386;2023-06-26T06:52:36;26.50;99.90
14473;DHT22;7322;50.872;4.386;2023-06-26T06:55:04;26.50;99.90
14473;DHT22;7322;50.872;4.386;2023-06-26T06:57:32;26.50;99.90
14473;DHT22;7322;50.872;4.386;2023-06-26T07:00:03;26.60;99.90
14473;DHT22;7322;50.872;4.386;2023-06-26T07:02:32;26.60;99.90
14473;DHT22;7322;50.872;4.386;2023-06-26T07:05:02;26.50;99.90
14473;DHT22;7322;50.872;4.386;2023-06-26T07:07:32;26.50;99.90
14473;DHT22;7322;50.872;4.386;2023-06-26T07:10:00;26.60;99.90
14473;DHT22;7322;50.872;4.386;2023-06-26T07:12:36;26.50;99.90
14473;DHT22;7322;50.872;4.386;2023-06-26T07:15:05;26.50;99.90
14473;DHT22;7322;50.872;4.386;2023-06-26T07:17:34;26.40;99.90
14473;DHT22;7322;50.872;4.386;2023-06-26T07:20:05;26.40;99.90
14473;DHT22;7322;50.872;4.386;2023-06-26T07:22:33;26.40;99.90
14473;DHT22;7322;50.872;4.386;2023-06-26T07:25:00;26.40;99.90
14473;DHT22;7322;50.872;4.386;2023-06-26T07:27:27;26.30;99.90
14473;DHT22;7322;50.872;4.386;2023-06-26T07:29:54;26.40;99.90
14473;DHT22;7322;50.872;4.386;2023-06-26T07:32:21;26.40;99.90
14473;DHT22;7322;50.872;4.386;2023-06-26T07:34:49;26.50;99.90
14473;DHT22;7322;50.872;4.386;2023-06-26T07:37:20;26.60;99.90
14473;DHT22;7322;50.872;4.386;2023-06-26T07:39:53;26.60;99.90
14473;DHT22;7322;50.872;4.386;2023-06-26T07:42:26;26.70;99.90
14473;DHT22;7322;50.872;4.386;2023-06-26T07:44:53;26.70;99.90
14473;DHT22;7322;50.872;4.386;2023-06-26T07:47:28;26.70;99.90
14473;DHT22;7322;50.872;4.386;2023-06-26T07:50:04;26.80;99.90
14473;DHT22;7322;50.872;4.386;2023-06-26T07:52:37;26.90;99.90
14473;DHT22;7322;50.872;4.386;2023-06-26T07:55:05;27.00;99.90
14473;DHT22;7322;50.872;4.386;2023-06-26T07:57:32;27.00;99.90
14473;DHT22;7322;50.872;4.386;2023-06-26T08:00:05;27.00;99.90
14473;DHT22;7322;50.872;4.386;2023-06-26T08:02:34;27.00;99.90
14473;DHT22;7322;50.872;4.386;2023-06-26T08:05:09;27.00;99.90
14473;DHT22;7322;50.872;4.386;2023-06-26T08:07:43;26.90;99.90
14473;DHT22;7322;50.872;4.386;2023-06-26T08:10:10;26.90;99.90
14473;DHT22;7322;50.872;4.386;2023-06-26T08:12:37;26.90;99.90
14473;DHT22;7322;50.872;4.386;2023-06-26T08:15:12;27.00;99.90
14473;DHT22;7322;50.872;4.386;2023-06-26T08:17:39;27.00;99.90
14473;DHT22;7322;50.872;4.386;2023-06-26T08:20:08;27.00;99.90
14473;DHT22;7322;50.872;4.386;2023-06-26T08:22:36;27.00;99.90
14473;DHT22;7322;50.872;4.386;2023-06-26T08:25:05;27.10;99.90
14473;DHT22;7322;50.872;4.386;2023-06-26T08:27:33;27.10;99.90
14473;DHT22;7322;50.872;4.386;2023-06-26T08:30:00;27.20;99.90
14473;DHT22;7322;50.872;4.386;2023-06-26T08:32:29;27.30;99.90
14473;DHT22;7322;50.872;4.386;2023-06-26T08:35:04;27.30;99.90
14473;DHT22;7322;50.872;4.386;2023-06-26T08:37:45;27.40;99.90
14473;DHT22;7322;50.872;4.386;2023-06-26T08:40:26;27.40;99.90
14473;DHT22;7322;50.872;4.386;2023-06-26T08:43:20;27.40;99.90
14473;DHT22;7322;50.872;4.386;2023-06-26T08:48:55;27.30;99.90
14473;DHT22;7322;50.872;4.386;2023-06-26T08:51:27;27.10;99.90
14473;DHT22;7322;50.872;4.386;2023-06-26T08:57:32;27.20;99.90
14473;DHT22;7322;50.872;4.386;2023-06-26T09:00:00;27.20;99.90
14473;DHT22;7322;50.872;4.386;2023-06-26T09:02:29;27.20;99.90
14473;DHT22;7322;50.872;4.386;2023-06-26T09:04:59;27.20;99.90
14473;DHT22;7322;50.872;4.386;2023-06-26T09:07:26;27.40;99.90
14473;DHT22;7322;50.872;4.386;2023-06-26T09:09:54;27.30;99.90
14473;DHT22;7322;50.872;4.386;2023-06-26T09:12:27;27.30;99.90
14473;DHT22;7322;50.872;4.386;2023-06-26T09:14:56;27.40;99.90
14473;DHT22;7322;50.872;4.386;2023-06-26T09:17:24;27.40;99.90
14473;DHT22;7322;50.872;4.386;2023-06-26T09:19:58;27.50;99.90
14473;DHT22;7322;50.872;4.386;2023-06-26T09:22:26;27.50;99.40
14473;DHT22;7322;50.872;4.386;2023-06-26T09:24:54;27.50;99.80
14473;DHT22;7322;50.872;4.386;2023-06-26T09:27:22;27.50;99.20
14473;DHT22;7322;50.872;4.386;2023-06-26T09:29:51;27.50;99.30
14473;DHT22;7322;50.872;4.386;2023-06-26T09:32:19;27.60;99.10
14473;DHT22;7322;50.872;4.386;2023-06-26T09:35:09;27.50;98.90
14473;DHT22;7322;50.872;4.386;2023-06-26T09:37:38;27.50;99.30
14473;DHT22;7322;50.872;4.386;2023-06-26T09:40:14;27.50;99.30
14473;DHT22;7322;50.872;4.386;2023-06-26T09:42:43;27.50;99.30
14473;DHT22;7322;50.872;4.386;2023-06-26T09:45:18;27.50;99.20
14473;DHT22;7322;50.872;4.386;2023-06-26T09:47:51;27.60;99.10
14473;DHT22;7322;50.872;4.386;2023-06-26T09:53:42;27.70;99.10
14473;DHT22;7322;50.872;4.386;2023-06-26T09:56:15;27.70;99.00
14473;DHT22;7322;50.872;4.386;2023-06-26T09:58:43;27.80;99.00
14473;DHT22;7322;50.872;4.386;2023-06-26T10:01:11;27.80;99.00
14473;DHT22;7322;50.872;4.386;2023-06-26T10:03:48;27.70;98.80
14473;DHT22;7322;50.872;4.386;2023-06-26T10:06:46;27.80;98.80
14473;DHT22;7322;50.872;4.386;2023-06-26T10:09:24;27.80;98.50
14473;DHT22;7322;50.872;4.386;2023-06-26T10:11:56;27.70;98.40
14473;DHT22;7322;50.872;4.386;2023-06-26T10:14:29;27.70;98.10
14473;DHT22;7322;50.872;4.386;2023-06-26T10:17:02;27.70;97.80
14473;DHT22;7322;50.872;4.386;2023-06-26T10:19:50;27.70;97.80
14473;DHT22;7322;50.872;4.386;2023-06-26T10:22:20;27.70;97.50
14473;DHT22;7322;50.872;4.386;2023-06-26T10:24:49;27.70;97.50
14473;DHT22;7322;50.872;4.386;2023-06-26T10:27:21;27.80;97.10
14473;DHT22;7322;50.872;4.386;2023-06-26T10:29:50;27.70;97.00
14473;DHT22;7322;50.872;4.386;2023-06-26T10:32:20;27.70;97.20
14473;DHT22;7322;50.872;4.386;2023-06-26T10:34:49;27.80;97.10
14473;DHT22;7322;50.872;4.386;2023-06-26T10:37:41;27.70;97.00
14473;DHT22;7322;50.872;4.386;2023-06-26T10:40:20;27.80;97.10
14473;DHT22;7322;50.872;4.386;2023-06-26T10:42:48;27.70;97.00
14473;DHT22;7322;50.872;4.386;2023-06-26T10:45:17;27.70;97.10
14473;DHT22;7322;50.872;4.386;2023-06-26T10:47:47;27.70;97.00
14473;DHT22;7322;50.872;4.386;2023-06-26T10:50:20;27.60;96.60
14473;DHT22;7322;50.872;4.386;2023-06-26T10:53:10;27.60;96.40
14473;DHT22;7322;50.872;4.386;2023-06-26T10:55:42;27.70;96.40
14473;DHT22;7322;50.872;4.386;2023-06-26T10:58:27;27.70;96.60
14473;DHT22;7322;50.872;4.386;2023-06-26T11:01:14;27.80;96.80
14473;DHT22;7322;50.872;4.386;2023-06-26T11:03:43;27.80;96.60
14473;DHT22;7322;50.872;4.386;2023-06-26T11:06:13;27.80;96.30
14473;DHT22;7322;50.872;4.386;2023-06-26T11:08:48;27.80;96.30
14473;DHT22;7322;50.872;4.386;2023-06-26T11:11:15;27.90;96.40
14473;DHT22;7322;50.872;4.386;2023-06-26T11:13:45;27.90;96.20
14473;DHT22;7322;50.872;4.386;2023-06-26T11:16:13;27.90;96.30
14473;DHT22;7322;50.872;4.386;2023-06-26T11:18:40;27.90;96.30
14473;DHT22;7322;50.872;4.386;2023-06-26T11:21:09;27.90;96.40
14473;DHT22;7322;50.872;4.386;2023-06-26T11:23:41;27.90;96.50
14473;DHT22;7322;50.872;4.386;2023-06-26T11:26:18;27.90;96.60
14473;DHT22;7322;50.872;4.386;2023-06-26T11:28:59;27.90;96.50
14473;DHT22;7322;50.872;4.386;2023-06-26T11:31:34;27.90;96.30
14473;DHT22;7322;50.872;4.386;2023-06-26T11:34:03;27.90;96.40
14473;DHT22;7322;50.872;4.386;2023-06-26T11:36:31;27.90;96.40
14473;DHT22;7322;50.872;4.386;2023-06-26T11:39:30;27.90;96.10
14473;DHT22;7322;50.872;4.386;2023-06-26T11:41:59;27.90;96.20
14473;DHT22;7322;50.872;4.386;2023-06-26T11:44:31;27.90;96.10
14473;DHT22;7322;50.872;4.386;2023-06-26T11:46:58;28.00;96.30
14473;DHT22;7322;50.872;4.386;2023-06-26T11:49:30;28.00;95.60
14473;DHT22;7322;50.872;4.386;2023-06-26T11:51:57;28.10;95.70
14473;DHT22;7322;50.872;4.386;2023-06-26T11:54:26;28.10;95.70
14473;DHT22;7322;50.872;4.386;2023-06-26T11:57:01;28.10;95.50
14473;DHT22;7322;50.872;4.386;2023-06-26T11:59:35;28.20;95.50
14473;DHT22;7322;50.872;4.386;2023-06-26T12:02:06;28.20;95.50
14473;DHT22;7322;50.872;4.386;2023-06-26T12:04:37;28.20;95.50
14473;DHT22;7322;50.872;4.386;2023-06-26T12:07:06;28.20;95.30
14473;DHT22;7322;50.872;4.386;2023-06-26T12:09:46;28.20;95.30
14473;DHT22;7322;50.872;4.386;2023-06-26T12:12:18;28.20;94.90
14473;DHT22;7322;50.872;4.386;2023-06-26T12:14:45;28.10;94.80
14473;DHT22;7322;50.872;4.386;2023-06-26T12:17:22;28.10;95.00
14473;DHT22;7322;50.872;4.386;2023-06-26T12:19:51;28.20;95.10
14473;DHT22;7322;50.872;4.386;2023-06-26T12:22:33;28.20;95.00
14473;DHT22;7322;50.872;4.386;2023-06-26T12:25:07;28.20;94.80
14473;DHT22;7322;50.872;4.386;2023-06-26T12:27:38;28.20;94.70
14473;DHT22;7322;50.872;4.386;2023-06-26T12:30:06;28.20;94.70
14473;DHT22;7322;50.872;4.386;2023-06-26T12:32:35;28.20;94.30
14473;DHT22;7322;50.872;4.386;2023-06-26T12:35:03;28.20;94.00
14473;DHT22;7322;50.872;4.386;2023-06-26T12:37:36;28.20;94.10
14473;DHT22;7322;50.872;4.386;2023-06-26T12:40:19;28.20;94.00
14473;DHT22;7322;50.872;4.386;2023-06-26T12:42:52;28.20;93.80
14473;DHT22;7322;50.872;4.386;2023-06-26T12:45:25;28.20;93.90
14473;DHT22;7322;50.872;4.386;2023-06-26T12:47:52;28.20;93.80
14473;DHT22;7322;50.872;4.386;2023-06-26T12:50:23;28.10;93.60
14473;DHT22;7322;50.872;4.386;2023-06-26T12:53:08;28.20;93.70
14473;DHT22;7322;50.872;4.386;2023-06-26T12:55:39;28.20;93.70
14473;DHT22;7322;50.872;4.386;2023-06-26T12:58:23;28.10;93.40
14473;DHT22;7322;50.872;4.386;2023-06-26T13:00:51;28.10;93.60
14473;DHT22;7322;50.872;4.386;2023-06-26T13:03:23;28.10;93.60
14473;DHT22;7322;50.872;4.386;2023-06-26T13:06:05;28.10;93.50
14473;DHT22;7322;50.872;4.386;2023-06-26T13:08:34;28.10;93.10
14473;DHT22;7322;50.872;4.386;2023-06-26T13:11:01;28.10;93.70
14473;DHT22;7322;50.872;4.386;2023-06-26T13:13:30;28.20;93.70
14473;DHT22;7322;50.872;4.386;2023-06-26T13:15:57;28.20;93.50
14473;DHT22;7322;50.872;4.386;2023-06-26T13:18:25;28.20;93.50
14473;DHT22;7322;50.872;4.386;2023-06-26T13:20:52;28.20;93.50
14473;DHT22;7322;50.872;4.386;2023-06-26T13:23:25;28.20;93.40
14473;DHT22;7322;50.872;4.386;2023-06-26T13:25:54;28.10;93.30
14473;DHT22;7322;50.872;4.386;2023-06-26T13:28:24;28.10;93.40
14473;DHT22;7322;50.872;4.386;2023-06-26T13:30:53;28.10;93.50
14473;DHT22;7322;50.872;4.386;2023-06-26T13:33:20;28.20;93.70
14473;DHT22;7322;50.872;4.386;2023-06-26T13:35:47;28.20;94.00
14473;DHT22;7322;50.872;4.386;2023-06-26T13:38:14;28.20;93.50
14473;DHT22;7322;50.872;4.386;2023-06-26T13:40:41;28.20;93.40
14473;DHT22;7322;50.872;4.386;2023-06-26T13:43:08;28.20;93.60
14473;DHT22;7322;50.872;4.386;2023-06-26T13:45:35;28.20;93.60
14473;DHT22;7322;50.872;4.386;2023-06-26T13:48:04;28.20;93.50
14473;DHT22;7322;50.872;4.386;2023-06-26T13:50:32;28.30;93.50
14473;DHT22;7322;50.872;4.386;2023-06-26T13:52:59;28.30;93.60
14473;DHT22;7322;50.872;4.386;2023-06-26T13:55:28;28.30;93.20
14473;DHT22;7322;50.872;4.386;2023-06-26T13:57:56;28.30;93.20
14473;DHT22;7322;50.872;4.386;2023-06-26T14:00:24;28.20;93.20
14473;DHT22;7322;50.872;4.386;2023-06-26T14:02:51;28.30;93.20
14473;DHT22;7322;50.872;4.386;2023-06-26T14:05:20;28.30;93.20
14473;DHT22;7322;50.872;4.386;2023-06-26T14:07:47;28.30;93.00
14473;DHT22;7322;50.872;4.386;2023-06-26T14:10:14;28.40;91.80
14473;DHT22;7322;50.872;4.386;2023-06-26T14:12:42;28.30;91.80
14473;DHT22;7322;50.872;4.386;2023-06-26T14:15:10;28.30;92.10
14473;DHT22;7322;50.872;4.386;2023-06-26T14:17:37;28.20;92.10
14473;DHT22;7322;50.872;4.386;2023-06-26T14:20:06;28.10;92.10
14473;DHT22;7322;50.872;4.386;2023-06-26T14:22:37;28.10;92.30
14473;DHT22;7322;50.872;4.386;2023-06-26T14:25:05;28.10;92.10
14473;DHT22;7322;50.872;4.386;2023-06-26T14:27:32;28.00;92.30
14473;DHT22;7322;50.872;4.386;2023-06-26T14:29:59;27.80;92.20
14473;DHT22;7322;50.872;4.386;2023-06-26T14:32:27;27.80;92.40
14473;DHT22;7322;50.872;4.386;2023-06-26T14:34:54;27.70;92.20
14473;DHT22;7322;50.872;4.386;2023-06-26T14:37:21;27.70;92.10
14473;DHT22;7322;50.872;4.386;2023-06-26T14:39:49;27.70;92.30
14473;DHT22;7322;50.872;4.386;2023-06-26T14:42:16;27.70;91.70
14473;DHT22;7322;50.872;4.386;2023-06-26T14:44:43;27.60;90.70
14473;DHT22;7322;50.872;4.386;2023-06-26T14:47:12;27.40;91.10
14473;DHT22;7322;50.872;4.386;2023-06-26T14:49:39;27.40;91.50
14473;DHT22;7322;50.872;4.386;2023-06-26T14:52:07;27.40;91.60
14473;DHT22;7322;50.872;4.386;2023-06-26T14:54:34;27.60;92.10
14473;DHT22;7322;50.872;4.386;2023-06-26T14:57:03;27.60;91.90
14473;DHT22;7322;50.872;4.386;2023-06-26T14:59:31;27.60;91.90
14473;DHT22;7322;50.872;4.386;2023-06-26T15:01:58;27.50;91.90
14473;DHT22;7322;50.872;4.386;2023-06-26T15:04:25;27.50;91.90
14473;DHT22;7322;50.872;4.386;2023-06-26T15:06:52;27.40;92.10
14473;DHT22;7322;50.872;4.386;2023-06-26T15:09:19;27.40;92.40
14473;DHT22;7322;50.872;4.386;2023-06-26T15:11:47;27.40;92.60
14473;DHT22;7322;50.872;4.386;2023-06-26T15:14:17;27.50;92.90
14473;DHT22;7322;50.872;4.386;2023-06-26T15:16:44;27.50;92.90
14473;DHT22;7322;50.872;4.386;2023-06-26T15:19:11;27.50;92.90
14473;DHT22;7322;50.872;4.386;2023-06-26T15:21:39;27.50;92.90
14473;DHT22;7322;50.872;4.386;2023-06-26T15:24:07;27.50;93.10
14473;DHT22;7322;50.872;4.386;2023-06-26T15:26:34;27.60;93.00
14473;DHT22;7322;50.872;4.386;2023-06-26T15:29:03;27.60;93.00
14473;DHT22;7322;50.872;4.386;2023-06-26T15:31:31;27.60;93.00
14473;DHT22;7322;50.872;4.386;2023-06-26T15:33:59;27.60;93.00
14473;DHT22;7322;50.872;4.386;2023-06-26T15:36:27;27.70;93.00
14473;DHT22;7322;50.872;4.386;2023-06-26T15:38:54;27.70;93.10
14473;DHT22;7322;50.872;4.386;2023-06-26T15:41:21;27.70;93.00
14473;DHT22;7322;50.872;4.386;2023-06-26T15:43:49;27.80;93.10
14473;DHT22;7322;50.872;4.386;2023-06-26T15:46:25;27.80;93.10
14473;DHT22;7322;50.872;4.386;2023-06-26T15:48:53;27.90;93.20
14473;DHT22;7322;50.872;4.386;2023-06-26T15:51:21;27.90;93.40
14473;DHT22;7322;50.872;4.386;2023-06-26T15:53:50;27.90;93.60
14473;DHT22;7322;50.872;4.386;2023-06-26T15:56:35;28.00;94.00
14473;DHT22;7322;50.872;4.386;2023-06-26T15:59:09;28.10;94.50
14473;DHT22;7322;50.872;4.386;2023-06-26T16:01:36;28.00;94.00
14473;DHT22;7322;50.872;4.386;2023-06-26T16:04:05;28.00;94.40
14473;DHT22;7322;50.872;4.386;2023-06-26T16:06:32;28.00;94.30
14473;DHT22;7322;50.872;4.386;2023-06-26T16:09:00;28.00;95.00
14473;DHT22;7322;50.872;4.386;2023-06-26T16:11:27;28.10;94.90